Time;durP1;ratioP1;P1;durP2;ratioP2;P2;SDS_P1;SDS_P2;PMS_P1;PMS_P2;Temp;Humidity;BMP_temperature;BMP_pressure;BME280_temperature;BME280_humidity;BME280_pressure;Samples;Min_cycle;Max_cycle;Signal;HPM_P1;HPM_P2
2023/12/18 00:01:23;;;;;;;18.77;7.50;;;;;;;3.43;100.00;103164.47;6250767;22;20249;-84
2023/12/18 00:03:49;;;;;;;16.02;7.20;;;;;;;3.50;100.00;103168.41;6277955;22;20045;-84
2023/12/18 00:06:14;;;;;;;18.50;7.10;;;;;;;3.57;100.00;103160.75;6251225;22;20015;-84
2023/12/18 00:08:40;;;;;;;17.97;7.13;;;;;;;3.63;100.00;103159.44;6250999;22;20149;-84
2023/12/18 00:11:05;;;;;;;13.85;7.18;;;;;;;3.70;100.00;103163.41;6277719;22;20030;-84
2023/12/18 00:13:31;;;;;;;16.17;7.60;;;;;;;3.74;100.00;103169.41;6250324;22;20012;-84
2023/12/18 00:15:56;;;;;;;16.87;8.20;;;;;;;3.80;100.00;103174.34;6200326;22;20095;-84
2023/12/18 00:18:22;;;;;;;15.57;7.77;;;;;;;3.86;100.00;103177.41;6224675;22;20434;-84
2023/12/18 00:20:47;;;;;;;15.73;7.40;;;;;;;3.92;100.00;103161.81;6200092;22;20266;-84
2023/12/18 00:23:12;;;;;;;16.27;7.10;;;;;;;3.96;100.00;103152.56;6200134;22;20015;-84
2023/12/18 00:25:38;;;;;;;14.47;7.53;;;;;;;4.09;100.00;103152.47;6224814;22;20015;-84
2023/12/18 00:28:04;;;;;;;14.03;7.17;;;;;;;3.99;100.00;103145.13;6250470;22;20042;-84
2023/12/18 00:30:29;;;;;;;15.05;8.15;;;;;;;4.01;100.00;103150.38;6250519;22;20014;-84
2023/12/18 00:32:55;;;;;;;15.60;7.90;;;;;;;4.01;100.00;103137.78;6200217;22;20019;-84
2023/12/18 00:35:20;;;;;;;16.90;8.43;;;;;;;4.09;100.00;103149.78;6199652;22;20038;-84
2023/12/18 00:37:45;;;;;;;16.13;7.47;;;;;;;4.09;100.00;103155.16;6225606;22;20491;-84
2023/12/18 00:40:11;;;;;;;19.87;8.83;;;;;;;4.12;100.00;103139.69;6224996;22;20094;-84
2023/12/18 00:42:36;;;;;;;17.23;7.67;;;;;;;4.15;100.00;103141.25;6225422;22;20019;-84
2023/12/18 00:45:02;;;;;;;12.27;7.30;;;;;;;4.13;100.00;103146.75;6250373;22;20422;-84
2023/12/18 00:47:27;;;;;;;17.35;7.93;;;;;;;4.19;100.00;103138.25;6275775;22;20033;-84
2023/12/18 00:49:53;;;;;;;15.27;7.77;;;;;;;4.21;100.00;103128.22;6250243;22;20379;-84
2023/12/18 00:52:18;;;;;;;19.70;10.00;;;;;;;4.21;100.00;103128.22;6250089;22;20016;-85
2023/12/18 00:54:44;;;;;;;16.60;8.33;;;;;;;4.24;100.00;103134.31;6224424;22;20015;-84
2023/12/18 00:57:09;;;;;;;17.93;9.03;;;;;;;4.28;100.00;103151.94;6277232;22;20303;-84
2023/12/18 00:59:35;;;;;;;18.95;9.40;;;;;;;4.26;100.00;103159.28;6250138;22;20312;-84
2023/12/18 01:02:04;;;;;;;18.17;8.00;;;;;;;4.26;100.00;103152.06;6199861;22;20094;-84
2023/12/18 01:04:29;;;;;;;12.05;6.65;;;;;;;4.29;100.00;103138.38;6225647;22;20026;-84
2023/12/18 01:06:55;;;;;;;15.43;8.77;;;;;;;4.30;100.00;103132.03;6224790;22;20103;-84
2023/12/18 01:09:20;;;;;;;17.77;8.55;;;;;;;4.31;100.00;103124.81;6277163;22;20007;-84
2023/12/18 01:11:46;;;;;;;14.48;7.47;;;;;;;4.36;100.00;103136.94;6250030;22;20390;-84
2023/12/18 01:14:11;;;;;;;15.97;7.80;;;;;;;4.37;100.00;103135.09;6224951;22;20016;-84
2023/12/18 01:16:37;;;;;;;21.83;10.13;;;;;;;4.34;100.00;103136.22;6250257;22;20016;-84
2023/12/18 01:19:04;;;;;;;23.08;9.32;;;;;;;4.39;100.00;103125.09;6250007;22;20378;-84
2023/12/18 01:21:29;;;;;;;19.20;8.97;;;;;;;4.39;100.00;103125.94;6277232;22;20015;-84
2023/12/18 01:23:54;;;;;;;22.27;10.35;;;;;;;4.41;100.00;103116.91;6249923;22;20086;-85
2023/12/18 01:26:20;;;;;;;21.03;10.30;;;;;;;4.41;100.00;103111.53;6250294;22;20430;-84
2023/12/18 01:28:45;;;;;;;23.43;10.00;;;;;;;4.45;100.00;103121.09;6250314;22;20477;-84
2023/12/18 01:31:20;;;;;;;18.70;9.00;;;;;;;4.55;100.00;103114.88;6250016;22;20441;-84
2023/12/18 01:33:45;;;;;;;21.98;9.27;;;;;;;4.49;100.00;103122.56;6250020;22;20099;-84
2023/12/18 01:36:11;;;;;;;22.87;10.47;;;;;;;4.52;100.00;103133.06;6250382;22;20012;-84
2023/12/18 01:38:36;;;;;;;22.00;9.43;;;;;;;4.52;100.00;103127.69;6249685;22;20365;-84
2023/12/18 01:41:02;;;;;;;23.63;10.03;;;;;;;4.54;100.00;103128.44;6199554;22;20012;-84
2023/12/18 01:43:28;;;;;;;24.70;9.70;;;;;;;4.55;100.00;103131.00;6250618;22;20012;-84
2023/12/18 01:46:01;;;;;;;24.20;10.33;;;;;;;4.54;100.00;103133.81;6224703;22;20007;-84
2023/12/18 01:48:27;;;;;;;22.73;11.27;;;;;;;4.54;100.00;103128.44;6249596;22;20003;-85
2023/12/18 01:50:54;;;;;;;21.48;11.48;;;;;;;4.56;100.00;103130.03;6249508;22;20430;-84
2023/12/18 01:53:22;;;;;;;23.35;10.15;;;;;;;4.59;100.00;103128.91;6249815;22;20042;-84
2023/12/18 01:55:51;;;;;;;25.00;10.60;;;;;;;4.58;100.00;103124.53;6250710;22;20011;-84
2023/12/18 01:58:18;;;;;;;22.90;8.93;;;;;;;4.62;100.00;103133.19;6225469;22;20452;-84
2023/12/18 02:00:44;;;;;;;22.98;9.57;;;;;;;4.62;100.00;103122.44;6249479;22;20087;-84
2023/12/18 02:03:12;;;;;;;23.63;10.65;;;;;;;4.66;100.00;103130.16;6276573;22;20007;-84
2023/12/18 02:05:39;;;;;;;18.97;8.83;;;;;;;4.59;100.00;103128.06;6250537;22;20008;-84
2023/12/18 02:08:07;;;;;;;19.90;9.32;;;;;;;4.60;100.00;103113.66;6276753;22;20007;-84
2023/12/18 02:10:34;;;;;;;23.70;9.93;;;;;;;4.59;100.00;103110.09;6249751;22;20454;-84
2023/12/18 02:12:59;;;;;;;25.23;11.43;;;;;;;4.57;100.00;103112.06;6277221;22;20008;-84
2023/12/18 02:15:25;;;;;;;20.47;9.93;;;;;;;4.58;100.00;103127.22;6223947;22;20019;-84
2023/12/18 02:17:50;;;;;;;24.87;10.37;;;;;;;4.59;100.00;103117.31;6249845;22;20393;-84
2023/12/18 02:20:15;;;;;;;24.13;10.90;;;;;;;4.59;100.00;103125.38;6249746;22;20030;-84
2023/12/18 02:22:50;;;;;;;20.38;9.70;;;;;;;4.59;100.00;103114.63;6250004;22;20377;-84
2023/12/18 02:25:17;;;;;;;21.77;10.37;;;;;;;4.59;100.00;103102.03;6277436;22;20004;-84
2023/12/18 02:27:44;;;;;;;22.20;9.60;;;;;;;4.64;100.00;103107.06;6276385;22;20557;-84
2023/12/18 02:30:25;;;;;;;20.05;9.93;;;;;;;4.61;100.00;103107.31;6225753;22;20008;-84
2023/12/18 02:32:53;;;;;;;19.15;9.93;;;;;;;4.60;100.00;103103.75;6278343;22;20015;-84
2023/12/18 02:35:19;;;;;;;18.27;9.20;;;;;;;4.67;100.00;103099.59;6278606;22;20051;-84
2023/12/18 02:37:44;;;;;;;23.13;10.47;;;;;;;4.63;100.00;103114.25;6278628;22;20410;-84
2023/12/18 02:40:10;;;;;;;17.73;9.70;;;;;;;4.62;100.00;103107.19;6225733;22;20110;-84
2023/12/18 02:42:35;;;;;;;22.13;10.75;;;;;;;4.63;100.00;103103.50;6251228;22;20026;-84
2023/12/18 02:45:02;;;;;;;24.27;10.30;;;;;;;4.63;100.00;103090.06;6252039;22;20490;-84
2023/12/18 02:47:28;;;;;;;23.27;10.88;;;;;;;4.64;100.00;103097.16;6225861;22;20020;-84
2023/12/18 02:49:53;;;;;;;22.80;10.20;;;;;;;4.64;100.00;103099.84;6226076;22;20116;-84
2023/12/18 02:52:19;;;;;;;27.93;11.83;;;;;;;4.63;100.00;103092.75;6225964;22;20023;-84
2023/12/18 02:54:44;;;;;;;24.70;10.65;;;;;;;4.63;100.00;103089.22;6251072;22;20014;-84
2023/12/18 02:57:10;;;;;;;25.42;10.60;;;;;;;4.61;100.00;103092.03;6226101;22;20016;-84
2023/12/18 02:59:37;;;;;;;27.90;11.70;;;;;;;4.59;100.00;103087.72;6251226;22;20418;-84
2023/12/18 03:02:03;;;;;;;25.27;10.57;;;;;;;4.60;100.00;103084.91;6226003;22;20022;-84
2023/12/18 03:04:28;;;;;;;21.90;10.67;;;;;;;4.56;100.00;103081.63;6226591;22;20090;-84
2023/12/18 03:06:54;;;;;;;19.40;9.00;;;;;;;4.61;100.00;103069.66;6251162;22;20337;-84
2023/12/18 03:09:21;;;;;;;21.83;11.27;;;;;;;4.56;100.00;103070.88;6225919;22;20016;-84
2023/12/18 03:11:47;;;;;;;29.00;10.60;;;;;;;4.59;100.00;103066.22;6252061;22;20019;-84
2023/12/18 03:14:15;;;;;;;22.83;11.05;;;;;;;4.57;100.00;103071.72;6277841;22;20549;-85
2023/12/18 03:16:41;;;;;;;23.90;10.80;;;;;;;4.53;100.00;103070.25;6250941;22;20107;-84
2023/12/18 03:19:06;;;;;;;21.25;10.88;;;;;;;4.54;100.00;103069.28;6251282;22;20688;-84
2023/12/18 03:21:32;;;;;;;25.67;11.07;;;;;;;4.52;100.00;103074.78;6250881;22;20540;-84
2023/12/18 03:23:57;;;;;;;26.70;12.15;;;;;;;4.53;100.00;103076.50;6225842;22;20103;-84
2023/12/18 03:26:23;;;;;;;25.75;10.40;;;;;;;4.67;100.00;103075.41;6250757;22;20053;-84
2023/12/18 03:28:48;;;;;;;28.83;11.63;;;;;;;4.55;100.00;103066.47;6251037;22;20038;-84
2023/12/18 03:31:14;;;;;;;22.73;11.07;;;;;;;4.52;100.00;103066.72;6278091;22;20086;-84
2023/12/18 03:33:40;;;;;;;24.13;11.95;;;;;;;4.52;100.00;103077.47;6250777;22;20430;-84
2023/12/18 03:36:06;;;;;;;25.10;12.50;;;;;;;4.54;100.00;103078.19;6250851;22;20079;-84
2023/12/18 03:38:31;;;;;;;24.30;10.73;;;;;;;4.54;100.00;103075.50;6278653;22;20016;-84
2023/12/18 03:40:56;;;;;;;22.93;10.57;;;;;;;4.57;100.00;103067.19;6224636;22;20446;-84
2023/12/18 03:43:24;;;;;;;26.87;12.17;;;;;;;4.53;100.00;103064.88;6277982;22;20414;-84
2023/12/18 03:45:49;;;;;;;21.92;11.82;;;;;;;4.54;100.00;103077.34;6250240;22;20021;-84
2023/12/18 03:48:15;;;;;;;22.73;12.10;;;;;;;4.59;100.00;103068.91;6225488;22;20102;-84
2023/12/18 03:50:41;;;;;;;21.60;11.02;;;;;;;4.56;100.00;103072.69;6225973;22;20016;-84
2023/12/18 03:53:08;;;;;;;22.95;10.75;;;;;;;4.55;100.00;103076.38;6225905;22;20023;-84
2023/12/18 03:55:36;;;;;;;20.95;11.63;;;;;;;4.56;100.00;103076.25;6225865;22;20016;-84
2023/12/18 03:58:02;;;;;;;28.33;11.90;;;;;;;4.54;100.00;103075.50;6251014;22;20315;-84
2023/12/18 04:00:28;;;;;;;27.40;11.20;;;;;;;4.56;100.00;103073.56;6250366;22;20095;-84
2023/12/18 04:02:53;;;;;;;29.92;11.82;;;;;;;4.56;100.00;103078.94;6250588;22;20008;-84
2023/12/18 04:05:19;;;;;;;24.05;11.57;;;;;;;4.61;100.00;103083.09;6225085;22;20501;-84
2023/12/18 04:07:45;;;;;;;26.03;12.73;;;;;;;4.60;100.00;103092.16;6250581;22;20019;-84
2023/12/18 04:10:11;;;;;;;28.88;11.65;;;;;;;4.63;100.00;103084.69;6251166;22;20414;-84
2023/12/18 04:12:37;;;;;;;27.83;11.87;;;;;;;4.65;100.00;103076.47;6224909;22;20460;-85
2023/12/18 04:15:06;;;;;;;26.60;11.55;;;;;;;4.69;100.00;103069.91;6250580;22;20007;-84
2023/12/18 04:17:31;;;;;;;29.42;11.70;;;;;;;4.67;100.00;103077.25;6250590;22;20031;-84
2023/12/18 04:19:57;;;;;;;24.33;12.02;;;;;;;4.65;100.00;103066.59;6250159;22;20422;-84
2023/12/18 04:22:23;;;;;;;28.37;12.13;;;;;;;4.68;100.00;103069.03;6277672;22;20011;-84
2023/12/18 04:24:48;;;;;;;28.63;11.53;;;;;;;4.65;100.00;103066.59;6250883;22;20012;-84
2023/12/18 04:27:14;;;;;;;23.53;11.60;;;;;;;4.66;100.00;103065.59;6225934;22;20023;-84
2023/12/18 04:29:40;;;;;;;28.15;12.15;;;;;;;4.67;100.00;103069.16;6250081;22;20065;-84
2023/12/18 04:32:06;;;;;;;25.17;12.27;;;;;;;4.68;100.00;103068.16;6200595;22;20011;-84
2023/12/18 04:34:34;;;;;;;29.37;12.20;;;;;;;4.67;100.00;103053.88;6249973;22;20018;-85
2023/12/18 04:36:59;;;;;;;26.38;12.18;;;;;;;4.70;100.00;103052.78;6225658;22;20438;-84
2023/12/18 04:39:25;;;;;;;26.20;12.47;;;;;;;4.70;100.00;103056.31;6250870;22;20015;-84
2023/12/18 04:41:50;;;;;;;27.50;11.87;;;;;;;4.73;100.00;103048.00;6249985;22;20349;-84
2023/12/18 04:44:16;;;;;;;25.90;11.40;;;;;;;4.74;100.00;103044.34;6250497;22;20010;-84
2023/12/18 04:46:41;;;;;;;28.10;11.57;;;;;;;4.73;100.00;103057.91;6224562;22;20262;-84
2023/12/18 04:49:07;;;;;;;31.90;12.43;;;;;;;4.73;100.00;103061.44;6250424;22;20011;-84
2023/12/18 04:51:32;;;;;;;26.27;11.47;;;;;;;4.71;100.00;103063.41;6224974;22;20022;-84
2023/12/18 04:53:58;;;;;;;27.52;12.25;;;;;;;4.74;100.00;103060.47;6224476;22;20039;-84
2023/12/18 04:56:24;;;;;;;24.53;11.07;;;;;;;4.72;100.00;103057.06;6276969;22;20008;-84
2023/12/18 04:58:50;;;;;;;26.70;11.48;;;;;;;4.73;100.00;103039.94;6225016;22;20019;-84
2023/12/18 05:01:15;;;;;;;26.80;12.93;;;;;;;4.75;100.00;103047.88;6200309;22;20015;-84
2023/12/18 05:03:40;;;;;;;31.23;11.23;;;;;;;4.73;100.00;103053.38;6249796;22;20026;-84
2023/12/18 05:06:23;;;;;;;25.37;11.50;;;;;;;4.74;100.00;103036.28;6224866;22;20016;-84
2023/12/18 05:08:50;;;;;;;26.33;12.10;;;;;;;4.71;100.00;103052.66;6277291;22;20372;-84
2023/12/18 05:11:19;;;;;;;32.07;12.07;;;;;;;4.70;100.00;103058.16;6250038;22;20015;-84
2023/12/18 05:13:45;;;;;;;28.30;10.95;;;;;;;4.74;100.00;103059.63;6276756;22;20235;-84
2023/12/18 05:16:11;;;;;;;27.17;12.05;;;;;;;4.68;100.00;103046.66;6250292;22;20034;-84
2023/12/18 05:18:37;;;;;;;25.25;11.43;;;;;;;4.67;100.00;103048.50;6249969;22;20458;-85
2023/12/18 05:21:06;;;;;;;36.77;12.73;;;;;;;4.67;100.00;103045.81;6249927;22;20051;-84
2023/12/18 05:23:31;;;;;;;28.73;12.20;;;;;;;4.65;100.00;103028.97;6250138;22;20086;-84
2023/12/18 05:25:57;;;;;;;21.20;9.50;;;;;;;4.70;100.00;103029.44;6224260;22;20031;-84
2023/12/18 05:28:22;;;;;;;27.50;12.03;;;;;;;4.65;100.00;103034.34;6199815;22;20334;-84
2023/12/18 05:30:48;;;;;;;26.02;12.60;;;;;;;4.66;100.00;103029.81;6224119;22;20062;-83
2023/12/18 05:33:13;;;;;;;26.00;10.32;;;;;;;4.70;100.00;103042.03;6224677;22;20004;-84
2023/12/18 05:35:38;;;;;;;27.67;12.90;;;;;;;4.64;100.00;103047.91;6249687;22;20038;-84
2023/12/18 05:38:04;;;;;;;25.53;11.43;;;;;;;4.66;100.00;103054.84;6276797;22;20008;-84
2023/12/18 05:40:29;;;;;;;28.00;11.83;;;;;;;4.63;100.00;103056.94;6250277;22;20448;-83
2023/12/18 05:42:55;;;;;;;28.03;12.30;;;;;;;4.62;100.00;103058.78;6276656;22;20004;-84
2023/12/18 05:45:21;;;;;;;25.38;11.73;;;;;;;4.65;100.00;103063.91;6249375;22;20322;-84
2023/12/18 05:47:46;;;;;;;32.63;13.73;;;;;;;4.67;100.00;103063.78;6276511;22;20011;-84
2023/12/18 05:50:12;;;;;;;25.93;12.33;;;;;;;4.67;100.00;103058.41;6224644;22;20012;-84
2023/12/18 05:52:37;;;;;;;32.78;12.90;;;;;;;4.64;100.00;103061.34;6224416;22;20624;-84
2023/12/18 05:55:03;;;;;;;32.87;12.47;;;;;;;4.65;100.00;103066.59;6224726;22;20110;-84
2023/12/18 05:57:29;;;;;;;26.70;12.27;;;;;;;4.66;100.00;103062.06;6225113;22;20016;-84
2023/12/18 05:59:54;;;;;;;31.50;11.20;;;;;;;4.70;100.00;103061.69;6249321;22;20054;-85
2023/12/18 06:02:22;;;;;;;25.45;12.02;;;;;;;4.71;100.00;103051.78;6250570;22;20015;-84
2023/12/18 06:04:49;;;;;;;22.53;9.60;;;;;;;4.70;100.00;103050.09;6225015;22;20016;-84
2023/12/18 06:07:14;;;;;;;23.45;10.68;;;;;;;4.71;100.00;103051.78;6251520;22;20029;-84
2023/12/18 06:09:40;;;;;;;28.57;11.00;;;;;;;4.69;100.00;103053.75;6226316;22;20012;-84
2023/12/18 06:12:06;;;;;;;33.55;12.00;;;;;;;4.69;100.00;103045.69;6252064;22;20074;-84
2023/12/18 06:14:31;;;;;;;31.40;12.97;;;;;;;4.71;100.00;103052.66;6251239;22;20050;-84
2023/12/18 06:16:57;;;;;;;27.52;11.65;;;;;;;4.71;100.00;103057.16;6278410;22;20007;-84
2023/12/18 06:19:22;;;;;;;30.93;13.13;;;;;;;4.74;100.00;103048.88;6226282;22;20008;-84
2023/12/18 06:21:48;;;;;;;30.67;12.93;;;;;;;4.73;100.00;103057.91;6225941;22;20026;-84
2023/12/18 06:24:13;;;;;;;30.83;12.67;;;;;;;4.75;100.00;103053.25;6251504;22;20016;-84
2023/12/18 06:26:38;;;;;;;31.40;13.13;;;;;;;4.73;100.00;103053.38;6251521;22;20008;-84
2023/12/18 06:29:04;;;;;;;29.57;11.63;;;;;;;4.74;100.00;103048.88;6226572;22;20012;-83
2023/12/18 06:31:29;;;;;;;26.70;11.53;;;;;;;4.78;100.00;103052.16;6226998;22;20008;-84
2023/12/18 06:33:55;;;;;;;27.43;12.70;;;;;;;4.79;100.00;103056.56;6251490;22;20016;-84
2023/12/18 06:36:20;;;;;;;31.43;9.83;;;;;;;4.84;100.00;103043.59;6251345;22;20092;-84
2023/12/18 06:38:46;;;;;;;31.80;12.63;;;;;;;4.82;100.00;103042.88;6251535;22;20329;-84
2023/12/18 06:41:11;;;;;;;33.87;11.47;;;;;;;4.78;100.00;103036.03;6250952;22;20438;-84
2023/12/18 06:43:38;;;;;;;35.03;12.38;;;;;;;4.82;100.00;103043.72;6277958;22;20065;-83
2023/12/18 06:46:04;;;;;;;29.93;12.40;;;;;;;4.79;100.00;103040.44;6277987;22;20003;-84
2023/12/18 06:48:29;;;;;;;27.98;12.23;;;;;;;4.80;100.00;103043.00;6252186;22;20061;-83
2023/12/18 06:50:55;;;;;;;35.17;12.07;;;;;;;4.80;100.00;103039.44;6251181;22;20016;-85
2023/12/18 06:53:20;;;;;;;28.20;11.75;;;;;;;4.81;100.00;103047.38;6251358;22;20007;-84
2023/12/18 06:55:48;;;;;;;33.57;12.70;;;;;;;4.79;100.00;103045.81;6225681;22;20008;-83
2023/12/18 06:58:15;;;;;;;27.25;11.70;;;;;;;4.77;100.00;103045.06;6250987;22;20057;-85
2023/12/18 07:00:44;;;;;;;25.60;11.50;;;;;;;4.81;100.00;103041.16;6225984;22;20022;-83
2023/12/18 07:03:09;;;;;;;30.60;12.40;;;;;;;4.79;100.00;103045.81;6251247;22;20385;-84
2023/12/18 07:05:35;;;;;;;29.38;12.95;;;;;;;4.77;100.00;103043.25;6251197;22;20042;-84
2023/12/18 07:08:00;;;;;;;35.47;13.45;;;;;;;4.77;100.00;103047.75;6251250;22;20030;-83
2023/12/18 07:10:26;;;;;;;31.87;11.87;;;;;;;4.81;100.00;103041.16;6225366;22;20133;-83
2023/12/18 07:12:51;;;;;;;27.17;12.10;;;;;;;4.85;100.00;103046.16;6250811;22;20016;-84
2023/12/18 07:15:17;;;;;;;33.63;13.02;;;;;;;4.82;100.00;103048.25;6251236;22;20007;-83
2023/12/18 07:17:42;;;;;;;35.50;13.32;;;;;;;4.80;100.00;103048.38;6250350;22;20077;-83
2023/12/18 07:20:08;;;;;;;31.27;13.00;;;;;;;4.83;100.00;103052.66;6277546;22;20102;-83
2023/12/18 07:22:35;;;;;;;34.90;12.98;;;;;;;4.80;100.00;103048.38;6250882;22;20065;-83
2023/12/18 07:25:01;;;;;;;31.63;13.48;;;;;;;4.84;100.00;103054.34;6249711;22;20008;-83
2023/12/18 07:27:27;;;;;;;27.38;12.63;;;;;;;4.83;100.00;103060.75;6224544;22;20011;-84
2023/12/18 07:29:52;;;;;;;35.72;13.43;;;;;;;4.83;100.00;103061.59;6250887;22;20007;-83
2023/12/18 07:32:17;;;;;;;28.00;12.23;;;;;;;4.87;100.00;103063.06;6250347;22;20093;-84
2023/12/18 07:34:46;;;;;;;32.43;12.63;;;;;;;4.84;100.00;103065.13;6224880;22;20444;-84
2023/12/18 07:37:11;;;;;;;25.67;12.05;;;;;;;4.85;100.00;103061.47;6250986;22;20014;-84
2023/12/18 07:39:47;;;;;;;;;;;;;;;;;;;;;
2023/12/18 07:42:13;;;;;;;39.38;13.45;;;;;;;4.88;100.00;103053.97;6278902;22;20353;-84
2023/12/18 07:44:41;;;;;;;37.50;13.57;;;;;;;4.87;100.00;103059.50;6250441;22;20046;-84
2023/12/18 07:47:07;;;;;;;35.20;13.52;;;;;;;4.86;100.00;103055.97;6250502;22;20000;-86
2023/12/18 07:49:35;;;;;;;30.00;13.43;;;;;;;4.92;100.00;103060.84;6225778;22;20011;-85
2023/12/18 07:52:01;;;;;;;31.95;13.25;;;;;;;4.91;100.00;103055.59;6250251;22;20010;-83
2023/12/18 07:54:26;;;;;;;32.20;11.67;;;;;;;4.94;100.00;103055.31;6250315;22;20433;-84
2023/12/18 07:56:52;;;;;;;32.17;12.47;;;;;;;4.91;100.00;103056.44;6250535;22;20460;-83
2023/12/18 07:59:17;;;;;;;31.50;13.70;;;;;;;4.94;100.00;103052.63;6249882;22;20014;-83
2023/12/18 08:01:43;;;;;;;36.58;13.43;;;;;;;4.96;100.00;103055.19;6277512;22;20083;-83
2023/12/18 08:04:10;;;;;;;26.93;11.70;;;;;;;4.97;100.00;103065.00;6250416;22;20015;-83
2023/12/18 08:06:38;;;;;;;26.70;11.20;;;;;;;5.00;100.00;103054.81;6250351;22;20430;-84
2023/12/18 08:09:07;;;;;;;33.25;13.18;;;;;;;4.98;100.00;103051.41;6250452;22;20019;-83
2023/12/18 08:11:33;;;;;;;33.17;13.65;;;;;;;4.98;100.00;103040.66;6225701;22;20027;-83
2023/12/18 08:13:59;;;;;;;36.03;13.95;;;;;;;4.98;100.00;103042.50;6277586;22;20011;-84
2023/12/18 08:16:24;;;;;;;32.40;12.45;;;;;;;5.01;100.00;103040.41;6250236;22;20011;-83
2023/12/18 08:18:50;;;;;;;29.43;12.03;;;;;;;5.04;100.00;103028.53;6225270;22;20012;-83
2023/12/18 08:21:15;;;;;;;30.80;12.20;;;;;;;5.07;100.00;103029.13;6224662;22;20484;-83
2023/12/18 08:23:41;;;;;;;29.25;12.07;;;;;;;5.09;100.00;103032.56;6277504;22;20098;-83
2023/12/18 08:26:10;;;;;;;28.50;13.23;;;;;;;5.07;100.00;103031.81;6276974;22;20050;-83
2023/12/18 08:28:37;;;;;;;29.02;12.48;;;;;;;5.17;100.00;103031.09;6277094;22;20074;-83
2023/12/18 08:31:02;;;;;;;29.13;12.27;;;;;;;5.16;100.00;103034.75;6200095;22;20015;-84
2023/12/18 08:33:28;;;;;;;29.03;12.47;;;;;;;5.25;100.00;103029.44;6277052;22;20010;-83
2023/12/18 08:35:53;;;;;;;27.98;11.88;;;;;;;5.24;100.00;103027.75;6250359;22;20467;-83
2023/12/18 08:38:19;;;;;;;30.53;13.27;;;;;;;5.23;100.00;103028.72;6225146;22;20460;-82
2023/12/18 08:40:45;;;;;;;30.83;12.90;;;;;;;5.29;100.00;103032.75;6199654;22;20442;-82
2023/12/18 08:43:11;;;;;;;33.20;12.82;;;;;;;5.29;100.00;103040.84;6200272;22;20035;-82
2023/12/18 08:45:36;;;;;;;30.85;12.75;;;;;;;5.32;100.00;103027.13;6250140;22;20030;-82
2023/12/18 08:48:03;;;;;;;28.38;12.50;;;;;;;5.37;100.00;103029.44;6250255;22;20330;-82
2023/12/18 08:50:28;;;;;;;29.35;12.20;;;;;;;5.36;100.00;103025.00;6250610;22;20065;-83
2023/12/18 08:52:54;;;;;;;27.35;12.95;;;;;;;5.33;100.00;103027.97;6224715;22;20449;-82
2023/12/18 08:55:19;;;;;;;23.80;9.90;;;;;;;5.35;100.00;103034.09;6225359;22;20011;-82
2023/12/18 08:57:45;;;;;;;27.77;12.05;;;;;;;5.34;100.00;103017.06;6225274;22;20012;-82
2023/12/18 09:00:14;;;;;;;26.55;10.73;;;;;;;5.33;100.00;103015.38;6250203;22;20018;-84
2023/12/18 09:02:39;;;;;;;26.75;12.52;;;;;;;5.34;100.00;103016.22;6250119;22;20015;-84
2023/12/18 09:05:08;;;;;;;31.60;12.43;;;;;;;5.35;100.00;103013.41;6199631;22;20461;-83
2023/12/18 09:07:33;;;;;;;31.75;12.70;;;;;;;5.40;100.00;103021.97;6225506;22;20038;-83
2023/12/18 09:09:59;;;;;;;32.67;12.83;;;;;;;5.42;100.00;103020.00;6225095;22;20413;-85
2023/12/18 09:12:27;;;;;;;28.20;12.00;;;;;;;5.48;100.00;103009.69;6249568;22;20004;-82
2023/12/18 09:14:52;;;;;;;50.80;14.10;;;;;;;5.50;100.00;103010.41;6249773;22;20004;-82
2023/12/18 09:17:17;;;;;;;29.10;13.03;;;;;;;5.55;100.00;103017.13;6277495;22;20000;-82
2023/12/18 09:19:43;;;;;;;29.63;13.77;;;;;;;5.60;100.00;103008.66;6277037;22;20461;-83
2023/12/18 09:22:08;;;;;;;26.27;12.43;;;;;;;5.61;100.00;103011.22;6224882;22;20020;-84
2023/12/18 09:24:34;;;;;;;34.17;12.67;;;;;;;5.65;100.00;103016.34;6249946;22;20008;-83
2023/12/18 09:27:00;;;;;;;24.00;12.00;;;;;;;5.64;100.00;103004.72;6225254;22;20035;-82
2023/12/18 09:29:28;;;;;;;37.22;11.68;;;;;;;5.66;100.00;103026.16;6249742;22;20026;-82
2023/12/18 09:31:54;;;;;;;29.75;13.65;;;;;;;5.69;100.00;103015.97;6250970;22;20008;-83
2023/12/18 09:34:21;;;;;;;39.13;12.93;;;;;;;5.72;100.00;103025.63;6224615;22;20016;-85
2023/12/18 09:36:47;;;;;;;33.53;12.63;;;;;;;5.74;100.00;103024.53;6225137;22;20004;-82
2023/12/18 09:39:14;;;;;;;27.33;12.93;;;;;;;5.78;100.00;103027.78;6251015;22;20016;-81
2023/12/18 09:41:40;;;;;;;29.38;13.23;;;;;;;5.72;100.00;103025.63;6252257;22;20061;-82
2023/12/18 09:44:05;;;;;;;32.07;14.10;;;;;;;5.73;100.00;103014.72;6252003;22;20008;-82
2023/12/18 09:46:31;;;;;;;28.98;12.55;;;;;;;5.72;100.00;103022.94;6251936;22;20090;-82
2023/12/18 09:48:57;;;;;;;31.07;13.13;;;;;;;5.71;100.00;103019.34;6226550;22;20008;-82
2023/12/18 09:51:25;;;;;;;32.78;13.40;;;;;;;5.69;100.00;103025.88;6226834;22;20490;-82
2023/12/18 09:53:52;;;;;;;27.93;13.67;;;;;;;5.73;100.00;103022.78;6279018;22;20050;-82
2023/12/18 09:56:22;;;;;;;26.05;11.20;;;;;;;5.70;100.00;103023.06;6252328;22;20066;-83
2023/12/18 09:58:48;;;;;;;30.20;12.15;;;;;;;5.63;100.00;103019.16;6279540;22;20003;-83
2023/12/18 10:01:14;;;;;;;31.67;13.07;;;;;;;5.67;100.00;103001.78;6278382;22;20014;-83
2023/12/18 10:03:40;;;;;;;26.30;11.40;;;;;;;5.69;100.00;103009.72;6251651;22;20012;-84
2023/12/18 10:06:05;;;;;;;28.60;11.75;;;;;;;5.65;100.00;103011.81;6251875;22;20087;-84
2023/12/18 10:08:31;;;;;;;31.37;12.93;;;;;;;5.68;100.00;103025.00;6226053;22;20106;-83
2023/12/18 10:10:56;;;;;;;29.88;12.48;;;;;;;5.63;100.00;103011.09;6252412;22;20020;-83
2023/12/18 10:13:24;;;;;;;32.40;14.10;;;;;;;5.62;100.00;103012.06;6201473;22;20016;-83
2023/12/18 10:15:50;;;;;;;31.75;12.55;;;;;;;5.53;100.00;103010.16;6251401;22;20430;-84
2023/12/18 10:18:18;;;;;;;28.03;12.70;;;;;;;5.55;100.00;103002.78;6278710;22;20014;-84
2023/12/18 10:20:48;;;;;;;26.23;12.63;;;;;;;5.54;100.00;103007.34;6227021;22;20422;-83
2023/12/18 10:23:13;;;;;;;22.48;11.50;;;;;;;5.53;100.00;103000.22;6278833;22;20007;-83
2023/12/18 10:25:41;;;;;;;32.87;13.10;;;;;;;5.54;100.00;103009.19;6200527;22;20498;-83
2023/12/18 10:28:07;;;;;;;26.15;10.07;;;;;;;5.71;100.00;103011.28;6225771;22;20007;-85
2023/12/18 10:30:36;;;;;;;26.52;11.88;;;;;;;5.53;100.00;103015.53;6251313;22;20382;-83
2023/12/18 10:33:06;;;;;;;33.42;12.25;;;;;;;5.49;100.00;103006.00;6278219;22;20014;-83
2023/12/18 10:35:33;;;;;;;33.50;12.63;;;;;;;5.51;100.00;103007.59;6251915;22;20004;-83
2023/12/18 10:38:00;;;;;;;31.40;11.93;;;;;;;5.50;100.00;103005.03;6251509;22;20019;-84
2023/12/18 10:40:27;;;;;;;27.00;12.48;;;;;;;5.52;100.00;103000.38;6251195;22;20061;-83
2023/12/18 10:43:06;;;;;;;25.80;11.75;;;;;;;5.52;100.00;102981.50;6251137;22;20008;-85
2023/12/18 10:45:33;;;;;;;29.98;12.57;;;;;;;5.48;100.00;102988.13;6251391;22;20035;-83
2023/12/18 10:48:01;;;;;;;25.98;12.20;;;;;;;5.53;100.00;102991.31;6279041;22;20000;-83
2023/12/18 10:50:32;;;;;;;30.55;11.88;;;;;;;5.47;100.00;102975.69;6250694;22;20004;-83
2023/12/18 10:52:59;;;;;;;29.05;12.27;;;;;;;5.47;100.00;102964.91;6279203;22;20082;-83
2023/12/18 10:55:26;;;;;;;31.25;12.65;;;;;;;5.45;100.00;102973.97;6200885;22;20031;-85
2023/12/18 10:57:54;;;;;;;32.97;12.38;;;;;;;5.47;100.00;102962.22;6250897;22;20020;-86
2023/12/18 11:00:21;;;;;;;29.05;11.48;;;;;;;5.42;100.00;102966.16;6251389;22;20034;-84
2023/12/18 11:02:47;;;;;;;26.90;12.00;;;;;;;5.48;100.00;102955.81;6250862;22;20012;-84
2023/12/18 11:05:14;;;;;;;31.70;11.68;;;;;;;5.48;100.00;102950.44;6225906;22;20015;-85
2023/12/18 11:07:40;;;;;;;21.30;9.48;;;;;;;5.54;100.00;102941.88;6250750;22;20441;-86